createdAt,value
2022-11-15T00:00:55.477Z,5.56
2022-11-15T00:01:55.499Z,5.42
2022-11-15T00:02:55.452Z,5.61
2022-11-15T00:03:55.459Z,5.26
2022-11-15T00:04:55.445Z,5.03
2022-11-15T00:05:55.418Z,5.23
2022-11-15T00:06:55.581Z,6.29
2022-11-15T00:07:56.322Z,5.21
2022-11-15T00:08:55.480Z,6.50
2022-11-15T00:09:55.472Z,7.13
2022-11-15T00:10:55.468Z,7.67
2022-11-15T00:11:55.475Z,6.83
2022-11-15T00:12:55.454Z,6.76
2022-11-15T00:14:55.467Z,7.70
2022-11-15T00:15:55.472Z,7.92
2022-11-15T00:16:55.507Z,8.43
2022-11-15T00:17:55.471Z,8.44
2022-11-15T00:18:55.500Z,8.72
2022-11-15T00:19:55.457Z,8.23
2022-11-15T00:20:55.479Z,8.48
2022-11-15T00:21:55.524Z,8.50
2022-11-15T00:23:55.467Z,8.44
2022-11-15T00:24:55.551Z,8.74
2022-11-15T00:25:55.511Z,8.59
2022-11-15T00:26:55.537Z,9.28
2022-11-15T00:27:55.488Z,7.33
2022-11-15T00:28:55.481Z,8.53
2022-11-15T00:29:55.528Z,8.69
2022-11-15T00:30:56.773Z,7.51
2022-11-15T00:31:55.507Z,8.37
2022-11-15T00:32:55.524Z,7.87
2022-11-15T00:33:55.514Z,8.20
2022-11-15T00:34:55.540Z,8.86
2022-11-15T00:35:55.509Z,9.03
2022-11-15T00:36:55.564Z,9.41
2022-11-15T00:37:55.508Z,7.29
2022-11-15T00:39:55.548Z,8.54
2022-11-15T00:40:55.546Z,7.92
2022-11-15T00:41:55.522Z,8.11
2022-11-15T00:42:55.522Z,8.40
2022-11-15T00:43:55.533Z,7.95
2022-11-15T00:44:55.573Z,8.89
2022-11-15T00:45:55.516Z,7.99
2022-11-15T00:46:55.553Z,8.33
2022-11-15T00:47:55.564Z,8.10
2022-11-15T00:48:55.540Z,8.67
2022-11-15T00:49:55.572Z,8.51
2022-11-15T00:51:55.560Z,7.77
2022-11-15T00:52:55.540Z,8.47
2022-11-15T00:53:55.564Z,8.23
2022-11-15T00:55:55.574Z,8.02
2022-11-15T00:56:55.570Z,8.24
2022-11-15T00:57:55.576Z,7.65
2022-11-15T00:58:55.585Z,8.08
2022-11-15T00:59:55.581Z,7.18
2022-11-15T01:00:55.655Z,8.00
2022-11-15T01:01:55.563Z,8.03
2022-11-15T01:02:55.633Z,8.49
2022-11-15T01:04:00.909Z,7.21
2022-11-15T01:05:55.609Z,7.60
2022-11-15T01:06:55.644Z,7.25
2022-11-15T01:07:55.631Z,7.24
2022-11-15T01:08:55.607Z,7.83
2022-11-15T01:09:55.598Z,7.42
2022-11-15T01:10:55.584Z,7.72
2022-11-15T01:11:55.607Z,7.59
2022-11-15T01:12:55.638Z,7.30
2022-11-15T01:13:55.592Z,6.96
2022-11-15T01:14:55.602Z,7.68
2022-11-15T01:15:55.634Z,7.60
2022-11-15T01:16:55.604Z,7.14
2022-11-15T01:17:55.632Z,6.06
2022-11-15T01:18:55.625Z,6.33
2022-11-15T01:19:55.627Z,6.40
2022-11-15T01:20:55.663Z,6.32
2022-11-15T01:21:55.615Z,6.34
2022-11-15T01:22:55.630Z,5.97
2022-11-15T01:23:55.633Z,6.26
2022-11-15T01:24:55.616Z,5.18
2022-11-15T01:25:55.667Z,5.24
2022-11-15T01:26:55.632Z,5.25
2022-11-15T01:27:55.642Z,5.27
2022-11-15T01:28:55.624Z,5.33
2022-11-15T01:29:55.633Z,4.74
2022-11-15T01:30:55.620Z,5.01
2022-11-15T01:31:55.659Z,4.96
2022-11-15T01:32:55.649Z,5.02
2022-11-15T01:33:55.691Z,4.94
2022-11-15T01:34:55.657Z,4.16
2022-11-15T01:35:55.685Z,4.90
2022-11-15T01:36:55.681Z,4.95
2022-11-15T01:37:55.669Z,4.78
2022-11-15T01:38:55.701Z,4.65
2022-11-15T01:39:55.669Z,4.92
2022-11-15T01:40:55.714Z,5.63
2022-11-15T01:41:55.673Z,4.92
2022-11-15T01:42:55.668Z,5.42
2022-11-15T01:43:55.740Z,5.22
2022-11-15T01:44:55.698Z,5.64
2022-11-15T01:45:55.676Z,4.79
2022-11-15T01:46:55.698Z,5.43
2022-11-15T01:47:55.699Z,4.99
2022-11-15T01:49:55.708Z,5.05
2022-11-15T01:50:55.746Z,5.05
2022-11-15T01:51:55.692Z,5.79
2022-11-15T01:52:55.701Z,5.18
2022-11-15T01:53:55.716Z,5.04
2022-11-15T01:54:55.701Z,5.50
2022-11-15T01:55:55.707Z,4.92
2022-11-15T01:56:55.726Z,5.84
2022-11-15T01:57:55.701Z,5.35
2022-11-15T01:58:55.773Z,4.93
2022-11-15T01:59:55.715Z,4.60
2022-11-15T02:00:55.833Z,4.23
2022-11-15T02:01:55.766Z,4.75
2022-11-15T02:02:55.735Z,5.24
2022-11-15T02:03:55.756Z,5.16
2022-11-15T02:05:55.713Z,4.31
2022-11-15T02:06:55.845Z,4.77
2022-11-15T02:07:55.740Z,4.21
2022-11-15T02:08:55.779Z,4.60
2022-11-15T02:12:55.765Z,4.69
2022-11-15T02:14:55.764Z,4.26
2022-11-15T02:17:55.781Z,4.73
2022-11-15T02:18:55.766Z,4.48
2022-11-15T02:19:55.771Z,4.96
2022-11-15T02:20:55.802Z,5.09
2022-11-15T02:21:55.771Z,4.98
2022-11-15T02:22:55.777Z,4.56
2022-11-15T02:23:55.758Z,4.50
2022-11-15T02:24:55.828Z,4.60
2022-11-15T02:26:55.810Z,5.09
2022-11-15T02:27:55.792Z,4.97
2022-11-15T02:28:55.787Z,4.57
2022-11-15T02:29:55.831Z,5.44
2022-11-15T02:30:55.788Z,5.36
2022-11-15T02:31:55.794Z,5.35
2022-11-15T02:32:55.785Z,5.56
2022-11-15T02:33:55.786Z,5.02
2022-11-15T02:34:55.805Z,5.53
2022-11-15T02:35:55.802Z,4.90
2022-11-15T02:36:55.817Z,5.46
2022-11-15T02:37:55.794Z,6.07
2022-11-15T02:38:55.804Z,5.90
2022-11-15T02:40:55.817Z,6.10
2022-11-15T02:41:55.836Z,5.62
2022-11-15T02:42:55.868Z,6.12
2022-11-15T02:43:55.823Z,6.40
2022-11-15T02:44:55.872Z,5.39
2022-11-15T02:45:55.889Z,5.85
2022-11-15T02:46:55.846Z,5.93
2022-11-15T02:47:55.879Z,5.55
2022-11-15T02:48:55.867Z,5.67
2022-11-15T02:49:55.862Z,5.99
2022-11-15T02:50:55.831Z,5.16
2022-11-15T02:51:55.863Z,5.37
2022-11-15T02:52:55.872Z,5.76
2022-11-15T02:53:55.847Z,5.51
2022-11-15T02:54:55.851Z,5.47
2022-11-15T02:55:55.865Z,5.59
2022-11-15T02:56:55.888Z,5.48
2022-11-15T02:57:55.908Z,5.72
2022-11-15T02:59:55.895Z,5.55
2022-11-15T03:00:55.959Z,5.72
2022-11-15T03:01:55.855Z,5.94
2022-11-15T03:02:55.902Z,5.98
2022-11-15T03:03:55.875Z,6.02
2022-11-15T03:04:55.862Z,5.45
2022-11-15T03:05:55.866Z,5.99
2022-11-15T03:06:55.982Z,5.58
2022-11-15T03:08:01.875Z,5.94
2022-11-15T03:09:55.934Z,6.06
2022-11-15T03:10:55.930Z,5.64
2022-11-15T03:12:55.912Z,5.61
2022-11-15T03:13:55.912Z,5.72
2022-11-15T03:14:55.890Z,5.56
2022-11-15T03:15:55.903Z,5.35
2022-11-15T03:16:55.929Z,5.86
2022-11-15T03:17:55.895Z,5.50
2022-11-15T03:18:55.942Z,6.06
2022-11-15T03:19:55.905Z,6.18
2022-11-15T03:20:55.922Z,5.85
2022-11-15T03:21:55.941Z,5.01
2022-11-15T03:22:55.941Z,6.18
2022-11-15T03:24:55.954Z,6.47
2022-11-15T03:25:55.947Z,5.45
2022-11-15T03:26:55.933Z,5.83
2022-11-15T03:27:55.946Z,5.81
2022-11-15T03:28:55.990Z,5.83
2022-11-15T03:29:55.919Z,6.47
2022-11-15T03:32:55.953Z,5.60
2022-11-15T03:33:55.992Z,5.83
2022-11-15T03:35:55.977Z,5.40
2022-11-15T03:36:55.974Z,6.02
2022-11-15T03:37:56.004Z,5.46
2022-11-15T03:38:55.974Z,5.57
2022-11-15T03:39:55.988Z,5.75
2022-11-15T03:40:55.990Z,5.18
2022-11-15T03:42:55.943Z,5.33
2022-11-15T03:43:56.010Z,5.34
2022-11-15T03:44:55.982Z,5.41
2022-11-15T03:46:56.038Z,5.23
2022-11-15T03:48:56.001Z,5.99
2022-11-15T03:49:56.004Z,5.77
2022-11-15T03:50:55.981Z,5.94
2022-11-15T03:51:55.975Z,6.22
2022-11-15T03:52:56.029Z,6.14
2022-11-15T03:54:56.028Z,6.20
2022-11-15T03:55:56.002Z,6.64
2022-11-15T03:56:56.004Z,7.36
2022-11-15T03:57:56.049Z,6.89
2022-11-15T03:59:56.027Z,5.98
2022-11-15T04:00:56.062Z,6.55
2022-11-15T04:01:56.045Z,6.68
2022-11-15T04:02:56.033Z,6.01
2022-11-15T04:06:56.069Z,5.41
2022-11-15T04:07:56.080Z,5.85
2022-11-15T04:11:56.038Z,5.49
2022-11-15T04:12:56.153Z,5.58
2022-11-15T04:14:56.066Z,5.37
2022-11-15T04:15:56.068Z,5.39
2022-11-15T04:16:56.069Z,5.94
2022-11-15T04:17:56.093Z,4.90
2022-11-15T04:18:56.040Z,5.24
2022-11-15T04:19:56.073Z,5.68
2022-11-15T04:20:56.100Z,5.40
2022-11-15T04:21:56.100Z,5.21
2022-11-15T04:22:56.072Z,5.37
2022-11-15T04:23:56.072Z,5.35
2022-11-15T04:24:56.098Z,4.60
2022-11-15T04:25:56.117Z,5.31
2022-11-15T04:26:56.106Z,5.26
2022-11-15T04:27:56.130Z,5.13
2022-11-15T04:28:56.079Z,5.42
2022-11-15T04:29:56.069Z,6.11
2022-11-15T04:30:56.122Z,5.31
2022-11-15T04:31:56.099Z,5.24
2022-11-15T04:32:56.124Z,5.76
2022-11-15T04:33:56.096Z,5.06
2022-11-15T04:34:56.099Z,5.55
2022-11-15T04:36:56.102Z,5.33
2022-11-15T04:37:56.114Z,5.51
2022-11-15T04:38:56.126Z,4.76
2022-11-15T04:39:56.110Z,4.94
2022-11-15T04:40:56.146Z,4.77
2022-11-15T04:41:56.114Z,5.30
2022-11-15T04:43:00.835Z,5.60
2022-11-15T04:43:56.155Z,4.77
2022-11-15T04:44:56.125Z,5.41
2022-11-15T04:46:56.145Z,4.67
2022-11-15T04:47:56.130Z,5.39
2022-11-15T04:48:58.954Z,5.66
2022-11-15T04:49:56.117Z,5.63
2022-11-15T04:56:56.180Z,6.38
2022-11-15T04:57:56.153Z,5.78
2022-11-15T04:58:56.204Z,5.56
2022-11-15T04:59:56.155Z,5.71
2022-11-15T05:00:56.231Z,5.54
2022-11-15T05:01:56.175Z,6.40
2022-11-15T05:02:56.159Z,5.74
2022-11-15T05:03:56.164Z,5.57
2022-11-15T05:04:56.181Z,6.27
2022-11-15T05:06:56.216Z,5.60
2022-11-15T05:09:56.186Z,4.92
2022-11-15T05:10:56.218Z,4.81
2022-11-15T05:11:56.197Z,4.49
2022-11-15T05:12:56.180Z,5.37
2022-11-15T05:15:56.213Z,6.34
2022-11-15T05:16:56.246Z,5.66
2022-11-15T05:17:56.211Z,5.63
2022-11-15T05:19:56.216Z,5.41
2022-11-15T05:20:56.232Z,5.49
2022-11-15T05:22:56.212Z,6.01
2022-11-15T05:23:56.217Z,5.60
2022-11-15T05:25:56.222Z,5.39
2022-11-15T05:26:56.292Z,5.46
2022-11-15T05:27:56.237Z,5.65
2022-11-15T05:28:56.249Z,5.71
2022-11-15T05:30:56.240Z,5.61
2022-11-15T05:32:56.261Z,5.53
2022-11-15T05:33:56.243Z,5.50
2022-11-15T05:34:56.257Z,6.11
2022-11-15T05:36:56.256Z,5.90
2022-11-15T05:38:56.273Z,5.60
2022-11-15T05:40:56.258Z,5.16
2022-11-15T05:41:56.281Z,6.38
2022-11-15T05:42:56.265Z,6.25
2022-11-15T05:43:56.288Z,6.16
2022-11-15T05:44:56.311Z,5.18
2022-11-15T05:45:56.288Z,5.72
2022-11-15T05:49:56.324Z,5.50
2022-11-15T05:50:56.262Z,5.25
2022-11-15T05:51:56.344Z,4.97
2022-11-15T05:52:58.617Z,5.40
2022-11-15T05:53:56.297Z,5.51
2022-11-15T05:54:56.322Z,5.34
2022-11-15T05:55:56.270Z,5.59
2022-11-15T05:56:56.293Z,5.28
2022-11-15T05:57:56.313Z,5.09
2022-11-15T05:59:56.327Z,5.25
2022-11-15T06:00:56.318Z,5.38
2022-11-15T06:01:56.394Z,5.07
2022-11-15T06:02:56.319Z,5.83
2022-11-15T06:06:56.463Z,4.76
2022-11-15T06:07:56.323Z,4.89
2022-11-15T06:08:56.331Z,4.86
2022-11-15T06:09:56.362Z,4.70
2022-11-15T06:10:56.328Z,4.95
2022-11-15T06:11:56.354Z,4.92
2022-11-15T06:12:56.321Z,4.53
2022-11-15T06:13:56.334Z,4.84
2022-11-15T06:14:56.379Z,4.79
2022-11-15T06:15:56.342Z,4.94
2022-11-15T06:16:56.353Z,4.38
2022-11-15T06:17:56.357Z,4.84
2022-11-15T06:18:56.375Z,5.33
2022-11-15T06:19:56.351Z,5.29
2022-11-15T06:23:56.376Z,4.64
2022-11-15T06:24:58.304Z,5.60
2022-11-15T06:25:56.404Z,4.85
2022-11-15T06:28:56.390Z,4.73
2022-11-15T06:29:56.407Z,4.81
2022-11-15T06:30:56.412Z,4.95
2022-11-15T06:31:56.404Z,4.63
2022-11-15T06:32:56.396Z,4.49
2022-11-15T06:33:56.414Z,4.43
2022-11-15T06:34:56.391Z,4.60
2022-11-15T06:35:56.416Z,3.96
2022-11-15T06:36:56.411Z,3.96
2022-11-15T06:37:56.448Z,4.46
2022-11-15T06:38:56.406Z,4.70
2022-11-15T06:39:56.421Z,4.57
2022-11-15T06:40:56.416Z,4.81
2022-11-15T06:41:56.413Z,4.92
2022-11-15T06:42:56.447Z,5.02
2022-11-15T06:44:56.430Z,4.66
2022-11-15T06:45:56.457Z,4.42
2022-11-15T06:46:56.428Z,4.48
2022-11-15T06:47:56.420Z,4.69
2022-11-15T06:48:56.447Z,5.04
2022-11-15T06:49:56.424Z,4.86
2022-11-15T06:50:56.436Z,4.92
2022-11-15T06:51:56.438Z,4.68
2022-11-15T06:52:56.438Z,5.02
2022-11-15T06:53:56.458Z,4.90
2022-11-15T06:54:56.449Z,4.88
2022-11-15T06:55:56.483Z,5.06
2022-11-15T06:56:56.474Z,4.97
2022-11-15T06:57:56.455Z,4.77
2022-11-15T06:58:56.457Z,5.07
2022-11-15T06:59:56.444Z,4.95
2022-11-15T07:01:56.460Z,5.52
2022-11-15T07:04:56.485Z,5.71
2022-11-15T07:05:56.487Z,5.54
2022-11-15T07:06:56.512Z,6.40
2022-11-15T07:10:56.469Z,5.61
2022-11-15T07:11:56.487Z,6.12
2022-11-15T07:12:56.491Z,6.55
2022-11-15T07:13:56.505Z,7.02
2022-11-15T07:16:56.539Z,6.41
2022-11-15T07:17:56.522Z,6.05
2022-11-15T07:18:56.541Z,5.80
2022-11-15T07:19:56.506Z,5.35
2022-11-15T07:21:56.545Z,4.98
2022-11-15T07:22:56.520Z,5.94
2022-11-15T07:23:56.546Z,5.16
2022-11-15T07:24:56.543Z,5.42
2022-11-15T07:25:56.512Z,5.32
2022-11-15T07:26:56.568Z,5.93
2022-11-15T07:27:56.508Z,5.60
2022-11-15T07:28:56.569Z,6.00
2022-11-15T07:29:56.561Z,6.09
2022-11-15T07:30:56.539Z,5.86
2022-11-15T07:31:56.569Z,5.52
2022-11-15T07:32:56.540Z,5.84
2022-11-15T07:33:56.565Z,6.01
2022-11-15T07:34:56.580Z,6.58
2022-11-15T07:35:56.548Z,6.01
2022-11-15T07:36:56.530Z,6.47
2022-11-15T07:37:56.555Z,6.34
2022-11-15T07:38:56.568Z,7.29
2022-11-15T07:39:56.575Z,7.76
2022-11-15T07:40:56.595Z,6.90
2022-11-15T07:41:56.554Z,7.72
2022-11-15T07:42:56.589Z,8.04
2022-11-15T07:43:56.561Z,7.99
2022-11-15T07:44:56.592Z,7.65
2022-11-15T07:45:59.394Z,8.39
2022-11-15T07:46:56.567Z,9.42
2022-11-15T07:47:56.616Z,9.54
2022-11-15T07:48:56.593Z,8.43
2022-11-15T07:49:56.627Z,8.90
2022-11-15T07:50:56.590Z,8.22
2022-11-15T07:51:56.571Z,8.57
2022-11-15T07:52:56.615Z,9.11
2022-11-15T07:53:56.608Z,9.18
2022-11-15T07:54:56.609Z,8.07
2022-11-15T07:55:56.612Z,8.10
2022-11-15T07:56:56.606Z,8.81
2022-11-15T07:57:56.624Z,8.43
2022-11-15T07:58:56.596Z,8.04
2022-11-15T07:59:56.627Z,7.98
2022-11-15T08:00:56.812Z,8.54
2022-11-15T08:01:56.754Z,8.23
2022-11-15T08:02:56.810Z,8.35
2022-11-15T08:03:56.594Z,7.83
2022-11-15T08:04:56.658Z,8.45
2022-11-15T08:05:56.597Z,8.12
2022-11-15T08:06:56.712Z,7.65
2022-11-15T08:07:56.677Z,8.80
2022-11-15T08:08:56.620Z,7.71
2022-11-15T08:09:56.619Z,8.06
2022-11-15T08:10:56.643Z,7.85
2022-11-15T08:11:56.632Z,7.93
2022-11-15T08:12:56.715Z,7.47
2022-11-15T08:13:56.641Z,8.89
2022-11-15T08:14:56.632Z,8.61
2022-11-15T08:15:57.945Z,9.58
2022-11-15T08:16:56.652Z,7.62
2022-11-15T08:17:56.656Z,7.84
2022-11-15T08:18:56.649Z,7.19
2022-11-15T08:19:56.673Z,7.08
2022-11-15T08:20:56.702Z,7.57
2022-11-15T08:21:56.659Z,6.84
2022-11-15T08:22:56.692Z,6.89
2022-11-15T08:23:56.674Z,7.54
2022-11-15T08:24:56.664Z,7.60
2022-11-15T08:25:56.711Z,6.98
2022-11-15T08:26:56.674Z,7.90
2022-11-15T08:27:56.710Z,6.72
2022-11-15T08:28:56.675Z,7.43
2022-11-15T08:29:59.445Z,7.97
2022-11-15T08:30:56.679Z,7.53
2022-11-15T08:31:56.697Z,7.08
2022-11-15T08:32:56.718Z,7.47
2022-11-15T08:33:56.691Z,7.03
2022-11-15T08:34:56.705Z,7.75
2022-11-15T08:35:56.738Z,6.66
2022-11-15T08:36:56.717Z,7.64
2022-11-15T08:37:56.730Z,6.99
2022-11-15T08:38:56.709Z,7.52
2022-11-15T08:39:56.703Z,7.54
2022-11-15T08:40:56.772Z,7.10
2022-11-15T08:41:56.710Z,7.61
2022-11-15T08:42:56.759Z,7.41
2022-11-15T08:43:56.743Z,7.76
2022-11-15T08:44:56.714Z,8.07
2022-11-15T08:46:56.755Z,8.25
2022-11-15T08:47:56.757Z,6.97
2022-11-15T08:48:56.727Z,7.26
2022-11-15T08:49:56.747Z,8.02
2022-11-15T08:50:56.781Z,7.74
2022-11-15T08:51:56.749Z,8.18
2022-11-15T08:52:56.729Z,8.30
2022-11-15T08:53:56.750Z,8.11
2022-11-15T08:54:56.760Z,8.43
2022-11-15T08:55:56.778Z,9.07
2022-11-15T08:56:56.755Z,8.78
2022-11-15T08:57:56.767Z,9.33
2022-11-15T08:58:56.761Z,8.80
2022-11-15T08:59:56.767Z,9.44
2022-11-15T09:00:56.798Z,9.29
2022-11-15T09:01:56.774Z,8.98
2022-11-15T09:02:56.782Z,8.74
2022-11-15T09:03:56.808Z,8.92
2022-11-15T09:04:56.771Z,9.55
2022-11-15T09:05:56.765Z,9.57
2022-11-15T09:06:56.807Z,10.07
2022-11-15T09:07:56.780Z,10.32
2022-11-15T09:08:56.799Z,11.13
2022-11-15T09:09:56.784Z,10.45
2022-11-15T09:10:56.836Z,10.40
2022-11-15T09:12:01.166Z,9.85
2022-11-15T09:12:56.779Z,10.15
2022-11-15T09:13:56.793Z,10.59
2022-11-15T09:14:56.789Z,10.19
2022-11-15T09:15:56.837Z,9.47
2022-11-15T09:16:56.800Z,9.71
2022-11-15T09:17:56.822Z,9.79
2022-11-15T09:18:56.807Z,9.87
2022-11-15T09:19:56.811Z,10.83
2022-11-15T09:20:56.851Z,11.03
2022-11-15T09:21:56.813Z,9.43
2022-11-15T09:22:56.795Z,10.38
2022-11-15T09:23:56.839Z,10.58
2022-11-15T09:24:56.844Z,9.94
2022-11-15T09:25:56.883Z,9.26
2022-11-15T09:26:56.827Z,10.99
2022-11-15T09:27:56.839Z,10.59
2022-11-15T09:28:56.863Z,9.67
2022-11-15T09:29:56.825Z,9.84
2022-11-15T09:30:56.859Z,9.43
2022-11-15T09:31:56.832Z,9.95
2022-11-15T09:32:56.844Z,11.24
2022-11-15T09:33:56.907Z,9.97
2022-11-15T09:34:56.847Z,9.15
2022-11-15T09:35:56.850Z,10.76
2022-11-15T09:36:56.881Z,9.73
2022-11-15T09:37:56.855Z,10.48
2022-11-15T09:38:56.866Z,10.56
2022-11-15T09:39:56.854Z,9.97
2022-11-15T09:40:56.869Z,10.01
2022-11-15T09:41:56.903Z,10.86
2022-11-15T09:42:56.885Z,11.18
2022-11-15T09:43:56.883Z,11.00
2022-11-15T09:44:56.913Z,10.25
2022-11-15T09:45:56.846Z,10.07
2022-11-15T09:46:56.911Z,10.32
2022-11-15T09:48:56.918Z,10.41
2022-11-15T09:49:58.090Z,11.73
2022-11-15T09:51:56.925Z,10.29
2022-11-15T09:52:56.891Z,10.87
2022-11-15T09:54:37.366Z,11.24
2022-11-15T09:55:56.897Z,11.54
2022-11-15T09:56:56.909Z,11.35
2022-11-15T09:58:56.889Z,11.41
2022-11-15T09:59:56.936Z,10.24
2022-11-15T10:00:56.933Z,11.49
2022-11-15T10:02:57.005Z,10.67
2022-11-15T10:03:56.900Z,11.41
2022-11-15T10:04:57.018Z,11.35
2022-11-15T10:05:56.916Z,11.33
2022-11-15T10:06:56.937Z,11.51
2022-11-15T10:07:56.973Z,11.09
2022-11-15T10:08:56.914Z,11.17
2022-11-15T10:09:56.946Z,10.98
2022-11-15T10:11:15.830Z,10.70
2022-11-15T10:11:56.955Z,10.09
2022-11-15T10:12:56.981Z,11.02
2022-11-15T10:13:56.957Z,10.62
2022-11-15T10:14:56.989Z,10.77
2022-11-15T10:15:56.963Z,10.86
2022-11-15T10:16:56.940Z,12.07
2022-11-15T10:17:56.999Z,12.63
2022-11-15T10:19:59.662Z,12.14
2022-11-15T10:20:56.969Z,12.17
2022-11-15T10:21:56.981Z,13.35
2022-11-15T10:22:57.023Z,11.71
2022-11-15T10:23:56.963Z,11.61
2022-11-15T10:25:58.401Z,11.04
2022-11-15T10:26:56.981Z,12.58
2022-11-15T10:27:56.996Z,12.63
2022-11-15T10:28:56.970Z,11.54
2022-11-15T10:29:56.987Z,12.03
2022-11-15T10:30:57.005Z,13.33
2022-11-15T10:31:56.989Z,11.98
2022-11-15T10:32:57.006Z,11.89
2022-11-15T10:33:56.976Z,12.68
2022-11-15T10:34:57.039Z,11.76
2022-11-15T10:35:57.114Z,11.64
2022-11-15T10:36:56.979Z,12.41
2022-11-15T10:37:57.004Z,12.86
2022-11-15T10:38:56.989Z,11.81
2022-11-15T10:39:57.013Z,12.38
2022-11-15T10:41:57.025Z,11.93
2022-11-15T10:42:57.007Z,11.95
2022-11-15T10:43:57.032Z,12.37
2022-11-15T10:44:57.033Z,11.36
2022-11-15T10:45:57.072Z,12.12
2022-11-15T10:46:57.048Z,11.87
2022-11-15T10:47:57.009Z,11.80
2022-11-15T10:48:57.055Z,11.29
2022-11-15T10:50:57.033Z,12.31
2022-11-15T10:51:57.073Z,11.81
2022-11-15T10:53:57.070Z,11.46
2022-11-15T10:54:57.050Z,12.41
2022-11-15T10:55:57.060Z,12.45
2022-11-15T10:56:57.126Z,11.28
2022-11-15T10:57:57.059Z,11.71
2022-11-15T10:58:57.059Z,11.30
2022-11-15T10:59:57.073Z,11.86
2022-11-15T11:02:57.067Z,11.74
2022-11-15T11:03:57.118Z,12.27
2022-11-15T11:04:57.064Z,11.70
2022-11-15T11:06:57.192Z,12.28
2022-11-15T11:07:57.090Z,11.85
2022-11-15T11:08:57.139Z,11.77
2022-11-15T11:09:57.083Z,11.62
2022-11-15T11:11:01.950Z,11.85
2022-11-15T11:11:57.108Z,11.74
2022-11-15T11:12:57.136Z,12.59
2022-11-15T11:13:57.097Z,12.58
2022-11-15T11:14:57.133Z,12.35
2022-11-15T11:15:57.079Z,12.50
2022-11-15T11:16:57.173Z,12.75
2022-11-15T11:17:57.110Z,12.60
2022-11-15T11:18:57.101Z,13.28
2022-11-15T11:19:57.143Z,12.97
2022-11-15T11:20:57.131Z,12.16
2022-11-15T11:21:57.131Z,12.76
2022-11-15T11:22:57.138Z,13.21
2022-11-15T11:23:57.142Z,12.50
2022-11-15T11:24:57.154Z,12.96
2022-11-15T11:25:57.114Z,12.81
2022-11-15T11:26:57.435Z,13.89
2022-11-15T11:27:57.114Z,13.99
2022-11-15T11:28:57.124Z,14.09
2022-11-15T11:29:57.185Z,12.49
2022-11-15T11:30:57.147Z,13.32
2022-11-15T11:31:57.172Z,13.72
2022-11-15T11:32:57.152Z,12.35
2022-11-15T11:33:57.158Z,13.35
2022-11-15T11:34:57.173Z,12.19
2022-11-15T11:35:57.146Z,13.32
2022-11-15T11:36:57.145Z,12.83
2022-11-15T11:37:57.149Z,13.05
2022-11-15T11:38:57.151Z,12.51
2022-11-15T11:39:57.174Z,12.86
2022-11-15T11:40:57.156Z,12.52
2022-11-15T11:41:57.162Z,12.22
2022-11-15T11:42:57.192Z,12.60
2022-11-15T11:43:57.203Z,13.46
2022-11-15T11:44:57.221Z,13.98
2022-11-15T11:45:57.167Z,13.85
2022-11-15T11:46:57.164Z,13.88
2022-11-15T11:47:57.207Z,13.12
2022-11-15T11:48:57.193Z,12.92
2022-11-15T11:49:57.170Z,12.89
2022-11-15T11:50:57.171Z,13.02
2022-11-15T11:51:57.167Z,12.84
2022-11-15T11:53:02.368Z,13.64
2022-11-15T11:53:57.204Z,12.59
2022-11-15T11:54:57.236Z,13.05
2022-11-15T11:57:57.212Z,12.46
2022-11-15T11:58:57.195Z,12.60
2022-11-15T11:59:57.231Z,14.16
2022-11-15T12:00:57.220Z,13.13
2022-11-15T12:01:57.356Z,13.26
2022-11-15T12:02:57.389Z,13.65
2022-11-15T12:03:57.192Z,12.67
2022-11-15T12:04:57.254Z,13.10
2022-11-15T12:05:57.220Z,11.98
2022-11-15T12:06:57.295Z,11.76
2022-11-15T12:08:00.730Z,11.37
2022-11-15T12:08:57.224Z,11.24
2022-11-15T12:09:57.211Z,11.09
2022-11-15T12:10:57.235Z,12.02
2022-11-15T12:11:57.246Z,12.23
2022-11-15T12:12:57.224Z,11.65
2022-11-15T12:14:57.258Z,10.94
2022-11-15T12:15:57.283Z,10.71
2022-11-15T12:16:57.249Z,10.26
2022-11-15T12:17:57.281Z,10.88
2022-11-15T12:18:57.251Z,11.00
2022-11-15T12:19:57.254Z,10.18
2022-11-15T12:20:57.309Z,9.97
2022-11-15T12:21:57.253Z,9.70
2022-11-15T12:22:57.262Z,9.44
2022-11-15T12:23:57.257Z,9.34
2022-11-15T12:24:57.261Z,10.04
2022-11-15T12:25:57.302Z,8.59
2022-11-15T12:26:57.309Z,8.03
2022-11-15T12:27:57.413Z,9.59
2022-11-15T12:29:06.333Z,9.63
2022-11-15T12:29:57.282Z,9.29
2022-11-15T12:30:58.458Z,9.99
2022-11-15T12:33:57.374Z,9.55
2022-11-15T12:34:57.289Z,9.03
2022-11-15T12:35:57.345Z,8.35
2022-11-15T12:36:57.311Z,6.95
2022-11-15T12:41:57.335Z,5.17
2022-11-15T12:42:57.318Z,6.16
2022-11-15T12:43:57.351Z,5.07
2022-11-15T12:44:57.427Z,6.00
2022-11-15T12:45:57.377Z,5.02
2022-11-15T12:46:57.345Z,4.91
2022-11-15T12:47:57.312Z,4.94
2022-11-15T12:48:57.367Z,5.36
2022-11-15T12:49:57.324Z,4.95
2022-11-15T12:50:57.380Z,5.21
2022-11-15T12:51:57.322Z,5.17
2022-11-15T12:52:57.321Z,5.57
2022-11-15T12:53:57.368Z,5.20
2022-11-15T12:54:57.362Z,5.39
2022-11-15T12:55:57.383Z,5.23
2022-11-15T12:56:57.337Z,5.07
2022-11-15T12:57:57.338Z,5.34
2022-11-15T12:58:57.375Z,5.16
2022-11-15T12:59:57.359Z,4.90
2022-11-15T13:00:57.435Z,4.72
2022-11-15T13:01:57.356Z,5.01
2022-11-15T13:02:57.388Z,5.67
2022-11-15T13:03:57.388Z,5.93
2022-11-15T13:04:57.367Z,7.13
2022-11-15T13:05:57.423Z,6.49
2022-11-15T13:06:57.412Z,7.00
2022-11-15T13:07:57.385Z,7.60
2022-11-15T13:09:57.367Z,7.66
2022-11-15T13:10:57.394Z,7.71
2022-11-15T13:11:57.391Z,7.49
2022-11-15T13:12:57.379Z,7.00
2022-11-15T13:13:57.411Z,7.65
2022-11-15T13:14:57.452Z,7.51
2022-11-15T13:15:57.430Z,6.94
2022-11-15T13:16:57.400Z,7.00
2022-11-15T13:17:57.447Z,7.03
2022-11-15T13:18:57.404Z,7.37
2022-11-15T13:19:57.431Z,7.58
2022-11-15T13:21:02.143Z,6.53
2022-11-15T13:21:57.408Z,7.01
2022-11-15T13:22:57.453Z,6.84
2022-11-15T13:23:57.427Z,7.27
2022-11-15T13:24:57.486Z,6.93
2022-11-15T13:25:57.411Z,7.44
2022-11-15T13:26:57.409Z,6.84
2022-11-15T13:27:57.412Z,6.76
2022-11-15T13:28:57.442Z,6.44
2022-11-15T13:29:57.475Z,7.36
2022-11-15T13:30:57.433Z,8.55
2022-11-15T13:31:57.440Z,8.43
2022-11-15T13:32:57.478Z,8.48
2022-11-15T13:33:57.422Z,7.22
2022-11-15T13:34:57.490Z,6.77
2022-11-15T13:35:57.460Z,7.66
2022-11-15T13:36:57.465Z,7.84
2022-11-15T13:37:57.482Z,6.54
2022-11-15T13:38:57.438Z,6.38
2022-11-15T13:39:57.446Z,7.23
2022-11-15T13:40:57.479Z,6.49
2022-11-15T13:41:57.440Z,6.72
2022-11-15T13:42:57.457Z,6.52
2022-11-15T13:43:57.473Z,6.20
2022-11-15T13:44:57.508Z,6.23
2022-11-15T13:45:57.468Z,5.69
2022-11-15T13:46:57.500Z,4.48
2022-11-15T13:47:57.518Z,4.88
2022-11-15T13:48:57.501Z,5.35
2022-11-15T13:51:57.474Z,4.69
2022-11-15T13:52:57.536Z,4.96
2022-11-15T13:53:57.484Z,5.12
2022-11-15T13:54:57.597Z,5.19
2022-11-15T13:55:57.494Z,5.17
2022-11-15T13:56:57.495Z,5.10
2022-11-15T13:57:57.528Z,4.62
2022-11-15T13:58:57.491Z,4.51
2022-11-15T13:59:57.530Z,5.26
2022-11-15T14:00:57.520Z,5.13
2022-11-15T14:01:57.569Z,4.88
2022-11-15T14:03:57.505Z,5.08
2022-11-15T14:04:57.520Z,5.64
2022-11-15T14:05:57.511Z,5.32
2022-11-15T14:06:57.665Z,4.67
2022-11-15T14:07:57.539Z,5.35
2022-11-15T14:08:57.556Z,5.11
2022-11-15T14:09:57.551Z,4.93
2022-11-15T14:10:57.530Z,5.05
2022-11-15T14:11:57.532Z,4.58
2022-11-15T14:12:57.579Z,6.08
2022-11-15T14:13:57.529Z,5.04
2022-11-15T14:14:57.532Z,4.52
2022-11-15T14:15:57.609Z,5.45
2022-11-15T14:16:57.535Z,5.19
2022-11-15T14:18:57.556Z,5.15
2022-11-15T14:19:57.536Z,4.90
2022-11-15T14:20:57.611Z,5.42
2022-11-15T14:21:57.583Z,4.78
2022-11-15T14:22:57.576Z,4.99
2022-11-15T14:23:57.567Z,5.48
2022-11-15T14:24:57.559Z,4.88
2022-11-15T14:25:57.568Z,4.62
2022-11-15T14:27:57.568Z,5.32
2022-11-15T14:28:57.608Z,5.36
2022-11-15T14:29:57.583Z,5.07
2022-11-15T14:30:57.603Z,5.21
2022-11-15T14:31:57.604Z,4.56
2022-11-15T14:32:57.589Z,5.21
2022-11-15T14:33:57.608Z,5.04
2022-11-15T14:34:57.583Z,4.66
2022-11-15T14:35:57.592Z,5.09
2022-11-15T14:36:57.627Z,4.83
2022-11-15T14:37:57.596Z,5.09
2022-11-15T14:38:57.636Z,5.15
2022-11-15T14:39:57.598Z,5.30
2022-11-15T14:40:57.627Z,5.97
2022-11-15T14:41:57.598Z,4.78
2022-11-15T14:42:57.616Z,5.17
2022-11-15T14:43:57.663Z,5.22
2022-11-15T14:44:57.607Z,5.01
2022-11-15T14:46:57.617Z,7.66
2022-11-15T14:47:57.627Z,6.75
2022-11-15T14:48:57.619Z,6.55
2022-11-15T14:49:57.616Z,6.95
2022-11-15T14:50:57.634Z,5.70
2022-11-15T14:51:57.671Z,5.74
2022-11-15T14:52:57.649Z,5.10
2022-11-15T14:54:57.640Z,5.06
2022-11-15T14:55:57.648Z,5.41
2022-11-15T14:56:57.682Z,5.92
2022-11-15T14:57:57.652Z,5.27
2022-11-15T14:58:57.652Z,6.66
2022-11-15T14:59:57.647Z,5.75
2022-11-15T15:00:57.666Z,6.28
2022-11-15T15:01:57.697Z,6.29
2022-11-15T15:02:57.697Z,8.64